AAR8981 RKSS-RKPC
Flight info
| Callsign | AAR8981 |
|---|---|
| Flight time | 0h 46m |
| Altitude | 22000 |
| Route | BULTI2Q BULTI Y711 DOTOL DOTOL2M |
| Aircraft | A321/M-SDE3FGHIRWY/LB1 |
Departure
| Time | 2025-09-07 03:18 |
|---|---|
| Airport | Gimpo International Airport (RKSS) |
Arrival
| Time | 2025-09-07 04:04 |
|---|---|
| Airport | Jeju International Airport (RKPC) |
| Time | Latitude | Longitude | Altitude | Speed | Heading |
|---|---|---|---|---|---|
| 2025-09-07 02:58 | 37.55780 | 126.80247 | 67 ft | 0 kts | 45° |
| 2025-09-07 03:07 | 37.55767 | 126.80231 | 61 ft | 3 kts | 45° |
| 2025-09-07 03:07 | 37.55753 | 126.80213 | 59 ft | 3 kts | 45° |
| 2025-09-07 03:08 | 37.55739 | 126.80155 | 61 ft | 3 kts | 133° |
| 2025-09-07 03:08 | 37.55751 | 126.80141 | 62 ft | 3 kts | 141° |
| 2025-09-07 03:12 | 37.55744 | 126.80149 | 57 ft | 4 kts | 139° |
| 2025-09-07 03:12 | 37.55657 | 126.80260 | 65 ft | 12 kts | 134° |
| 2025-09-07 03:13 | 37.55538 | 126.80265 | 59 ft | 9 kts | 225° |
| 2025-09-07 03:13 | 37.55415 | 126.80204 | 64 ft | 12 kts | 142° |
| 2025-09-07 03:14 | 37.55286 | 126.80367 | 59 ft | 14 kts | 136° |
| 2025-09-07 03:14 | 37.55133 | 126.80560 | 61 ft | 17 kts | 134° |
| 2025-09-07 03:15 | 37.54849 | 126.80789 | 56 ft | 19 kts | 219° |
| 2025-09-07 03:15 | 37.54832 | 126.80644 | 57 ft | 19 kts | 310° |
| 2025-09-07 03:16 | 37.54898 | 126.80559 | 61 ft | 0 kts | 315° |
| 2025-09-07 03:16 | 37.55318 | 126.80031 | 56 ft | 122 kts | 315° |
| 2025-09-07 03:17 | 37.56996 | 126.77922 | 1201 ft | 200 kts | 314° |
| 2025-09-07 03:17 | 37.58706 | 126.75606 | 2861 ft | 239 kts | 312° |
| 2025-09-07 03:18 | 37.61120 | 126.72347 | 4324 ft | 261 kts | 313° |
| 2025-09-07 03:18 | 37.62680 | 126.68343 | 5696 ft | 269 kts | 265° |
| 2025-09-07 03:19 | 37.59264 | 126.62619 | 7692 ft | 284 kts | 224° |
| 2025-09-07 03:20 | 37.56093 | 126.59644 | 9055 ft | 291 kts | 204° |
| 2025-09-07 03:20 | 37.52017 | 126.58844 | 10198 ft | 305 kts | 189° |
| 2025-09-07 03:21 | 37.47514 | 126.58219 | 10436 ft | 346 kts | 190° |
| 2025-09-07 03:21 | 37.42559 | 126.57518 | 11084 ft | 364 kts | 189° |
| 2025-09-07 03:21 | 37.40014 | 126.57487 | 11593 ft | 370 kts | 178° |
| 2025-09-07 03:22 | 37.34902 | 126.58770 | 12637 ft | 377 kts | 171° |
| 2025-09-07 03:22 | 37.29742 | 126.60233 | 13670 ft | 383 kts | 169° |
| 2025-09-07 03:23 | 37.21973 | 126.62832 | 14978 ft | 391 kts | 168° |
| 2025-09-07 03:24 | 37.16711 | 126.64619 | 15863 ft | 395 kts | 169° |
| 2025-09-07 03:24 | 37.11363 | 126.66392 | 16770 ft | 400 kts | 169° |
| 2025-09-07 03:25 | 37.05939 | 126.68157 | 17644 ft | 405 kts | 170° |
| 2025-09-07 03:25 | 37.00446 | 126.69944 | 18445 ft | 409 kts | 170° |
| 2025-09-07 03:25 | 36.97689 | 126.70850 | 18820 ft | 411 kts | 170° |
| 2025-09-07 03:26 | 36.92128 | 126.72686 | 19568 ft | 414 kts | 170° |
| 2025-09-07 03:26 | 36.86652 | 126.75147 | 20261 ft | 422 kts | 162° |
| 2025-09-07 03:27 | 36.78458 | 126.79343 | 21285 ft | 427 kts | 163° |
| 2025-09-07 03:28 | 36.72882 | 126.81937 | 21792 ft | 428 kts | 171° |
| 2025-09-07 03:28 | 36.66988 | 126.82718 | 21874 ft | 436 kts | 184° |
| 2025-09-07 03:29 | 36.60863 | 126.82902 | 21875 ft | 452 kts | 183° |
| 2025-09-07 03:29 | 36.54553 | 126.83151 | 21867 ft | 454 kts | 182° |
| 2025-09-07 03:29 | 36.51394 | 126.83284 | 21874 ft | 454 kts | 182° |
| 2025-09-07 03:30 | 36.45082 | 126.83541 | 21880 ft | 454 kts | 183° |
| 2025-09-07 03:30 | 36.38761 | 126.83743 | 21880 ft | 452 kts | 186° |
| 2025-09-07 03:31 | 36.32560 | 126.83122 | 21865 ft | 450 kts | 189° |
| 2025-09-07 03:32 | 36.23211 | 126.82103 | 21866 ft | 450 kts | 189° |
| 2025-09-07 03:32 | 36.20061 | 126.81761 | 21865 ft | 450 kts | 189° |
| 2025-09-07 03:32 | 36.13824 | 126.81090 | 21848 ft | 450 kts | 189° |
| 2025-09-07 03:33 | 36.07583 | 126.80415 | 21850 ft | 450 kts | 189° |
| 2025-09-07 03:33 | 36.01343 | 126.79731 | 21854 ft | 451 kts | 189° |
| 2025-09-07 03:34 | 35.95079 | 126.79046 | 21840 ft | 452 kts | 189° |
| 2025-09-07 03:34 | 35.88846 | 126.78377 | 21847 ft | 452 kts | 189° |
| 2025-09-07 03:35 | 35.79366 | 126.77350 | 21865 ft | 455 kts | 189° |
| 2025-09-07 03:36 | 35.73071 | 126.76663 | 21862 ft | 453 kts | 189° |
| 2025-09-07 03:36 | 35.66783 | 126.75979 | 21868 ft | 454 kts | 189° |
| 2025-09-07 03:36 | 35.63641 | 126.75641 | 21870 ft | 454 kts | 189° |
| 2025-09-07 03:37 | 35.54245 | 126.74634 | 21866 ft | 453 kts | 190° |
| 2025-09-07 03:37 | 35.51107 | 126.74290 | 21863 ft | 453 kts | 189° |
| 2025-09-07 03:38 | 35.44816 | 126.73611 | 21866 ft | 453 kts | 189° |
| 2025-09-07 03:39 | 35.35372 | 126.72616 | 21856 ft | 454 kts | 188° |
| 2025-09-07 03:39 | 35.29122 | 126.71946 | 21862 ft | 454 kts | 188° |
| 2025-09-07 03:40 | 35.22833 | 126.71272 | 21865 ft | 454 kts | 188° |
| 2025-09-07 03:40 | 35.16524 | 126.70596 | 21854 ft | 455 kts | 188° |
| 2025-09-07 03:40 | 35.13370 | 126.70264 | 21856 ft | 455 kts | 188° |
| 2025-09-07 03:41 | 35.07050 | 126.69601 | 21861 ft | 456 kts | 188° |
| 2025-09-07 03:41 | 35.00700 | 126.68928 | 21491 ft | 443 kts | 188° |
| 2025-09-07 03:42 | 34.94817 | 126.68325 | 21014 ft | 417 kts | 188° |
| 2025-09-07 03:42 | 34.89083 | 126.67708 | 20539 ft | 411 kts | 188° |
| 2025-09-07 03:43 | 34.80455 | 126.66782 | 19841 ft | 433 kts | 188° |
| 2025-09-07 03:44 | 34.74351 | 126.66137 | 19382 ft | 442 kts | 187° |
| 2025-09-07 03:44 | 34.71287 | 126.65818 | 19151 ft | 441 kts | 187° |
| 2025-09-07 03:45 | 34.62139 | 126.64856 | 18481 ft | 437 kts | 187° |
| 2025-09-07 03:45 | 34.56100 | 126.64224 | 18008 ft | 434 kts | 187° |
| 2025-09-07 03:46 | 34.50125 | 126.63591 | 16991 ft | 427 kts | 187° |
| 2025-09-07 03:46 | 34.44277 | 126.62984 | 15454 ft | 417 kts | 187° |
| 2025-09-07 03:46 | 34.41403 | 126.62684 | 14715 ft | 412 kts | 187° |
| 2025-09-07 03:47 | 34.32999 | 126.61807 | 12734 ft | 393 kts | 187° |
| 2025-09-07 03:48 | 34.27701 | 126.61858 | 12099 ft | 368 kts | 173° |
| 2025-09-07 03:48 | 34.22610 | 126.62997 | 11942 ft | 377 kts | 173° |
| 2025-09-07 03:48 | 34.20028 | 126.63578 | 11858 ft | 378 kts | 172° |
| 2025-09-07 03:49 | 34.12298 | 126.65345 | 11175 ft | 373 kts | 172° |
| 2025-09-07 03:49 | 34.09816 | 126.65916 | 11034 ft | 351 kts | 173° |
| 2025-09-07 03:50 | 34.05422 | 126.66935 | 10376 ft | 300 kts | 173° |
| 2025-09-07 03:50 | 34.01416 | 126.67840 | 9931 ft | 294 kts | 173° |
| 2025-09-07 03:51 | 33.95350 | 126.69203 | 9570 ft | 293 kts | 173° |
| 2025-09-07 03:52 | 33.91372 | 126.70104 | 9318 ft | 292 kts | 173° |
| 2025-09-07 03:52 | 33.89376 | 126.70557 | 9150 ft | 289 kts | 173° |
| 2025-09-07 03:53 | 33.83577 | 126.71875 | 7193 ft | 270 kts | 173° |
| 2025-09-07 03:53 | 33.81782 | 126.72287 | 6781 ft | 258 kts | 173° |
| 2025-09-07 03:53 | 33.78318 | 126.73074 | 5590 ft | 250 kts | 173° |
| 2025-09-07 03:54 | 33.74950 | 126.73833 | 4842 ft | 240 kts | 173° |
| 2025-09-07 03:54 | 33.71710 | 126.74563 | 4262 ft | 233 kts | 173° |
| 2025-09-07 03:55 | 33.67065 | 126.75562 | 4041 ft | 208 kts | 181° |
| 2025-09-07 03:56 | 33.64647 | 126.74717 | 4031 ft | 151 kts | 217° |
| 2025-09-07 03:56 | 33.63444 | 126.72962 | 4032 ft | 133 kts | 236° |
| 2025-09-07 03:57 | 33.62438 | 126.71110 | 3924 ft | 132 kts | 238° |
| 2025-09-07 03:57 | 33.61952 | 126.70178 | 3789 ft | 132 kts | 238° |
| 2025-09-07 03:57 | 33.60991 | 126.68313 | 3478 ft | 130 kts | 238° |
| 2025-09-07 03:58 | 33.60206 | 126.66780 | 3208 ft | 129 kts | 238° |
| 2025-09-07 03:58 | 33.59109 | 126.64638 | 2829 ft | 129 kts | 239° |
| 2025-09-07 03:59 | 33.57873 | 126.62223 | 2401 ft | 127 kts | 239° |
| 2025-09-07 04:00 | 33.56956 | 126.60430 | 2072 ft | 125 kts | 239° |
| 2025-09-07 04:00 | 33.56037 | 126.58637 | 1782 ft | 125 kts | 239° |
| 2025-09-07 04:00 | 33.55580 | 126.57744 | 1617 ft | 126 kts | 240° |
| 2025-09-07 04:01 | 33.54641 | 126.55912 | 1269 ft | 131 kts | 240° |
| 2025-09-07 04:01 | 33.53706 | 126.54091 | 926 ft | 123 kts | 241° |
| 2025-09-07 04:02 | 33.52800 | 126.52323 | 622 ft | 129 kts | 237° |
| 2025-09-07 04:02 | 33.51869 | 126.50517 | 279 ft | 126 kts | 238° |
| 2025-09-07 04:03 | 33.50755 | 126.48331 | 93 ft | 38 kts | 235° |
| 2025-09-07 04:04 | 33.50510 | 126.48217 | 92 ft | 3 kts | 92° |
| 2025-09-07 04:04 | 33.50521 | 126.48255 | 93 ft | 8 kts | 64° |
| 2025-09-07 04:04 | 33.50602 | 126.48412 | 92 ft | 15 kts | 58° |
| 2025-09-07 04:05 | 33.50508 | 126.48574 | 90 ft | 11 kts | 172° |
| 2025-09-07 04:05 | 33.50448 | 126.48608 | 92 ft | 0 kts | 149° |